createdAt,value
2019-03-22T00:00:03.263Z,50.73
2019-03-22T00:02:32.963Z,50.42
2019-03-22T00:05:01.099Z,50.10
2019-03-22T00:07:27.856Z,50.71
2019-03-22T00:09:55.477Z,51.12
2019-03-22T00:12:24.083Z,50.51
2019-03-22T00:14:51.432Z,50.34
2019-03-22T00:17:18.212Z,50.48
2019-03-22T00:20:05.668Z,50.45
2019-03-22T00:22:34.243Z,50.56
2019-03-22T00:25:00.876Z,50.80
2019-03-22T00:27:28.007Z,50.80
2019-03-22T00:29:58.572Z,51.35
2019-03-22T00:32:25.188Z,50.51
2019-03-22T00:35:01.496Z,50.48
2019-03-22T00:37:46.896Z,50.76
2019-03-22T00:40:17.202Z,50.83
2019-03-22T00:42:45.103Z,50.74
2019-03-22T00:45:11.726Z,51.48
2019-03-22T00:47:38.824Z,51.19
2019-03-22T00:50:06.800Z,50.93
2019-03-22T00:52:36.551Z,51.01
2019-03-22T00:55:05.160Z,51.43
2019-03-22T00:57:33.594Z,51.95
2019-03-22T01:00:01.280Z,52.27
2019-03-22T01:02:30.799Z,52.03
2019-03-22T01:04:59.405Z,51.32
2019-03-22T01:07:26.259Z,51.43
2019-03-22T01:09:56.409Z,51.56
2019-03-22T01:12:27.665Z,51.32
2019-03-22T01:14:55.631Z,51.47
2019-03-22T01:17:23.390Z,51.26
2019-03-22T01:19:54.690Z,51.35
2019-03-22T01:22:22.523Z,51.48
2019-03-22T01:24:54.278Z,52.50
2019-03-22T01:27:23.187Z,52.65
2019-03-22T01:30:00.400Z,53.12
2019-03-22T01:32:29.089Z,53.23
2019-03-22T01:35:01.085Z,52.24
2019-03-22T01:37:32.418Z,51.69
2019-03-22T01:40:01.005Z,51.10
2019-03-22T01:42:28.837Z,51.13
2019-03-22T01:44:56.446Z,51.41
2019-03-22T01:47:23.272Z,51.66
2019-03-22T01:49:50.955Z,51.46
2019-03-22T01:52:22.034Z,52.09
2019-03-22T01:54:49.612Z,51.85
2019-03-22T01:57:33.932Z,52.36
2019-03-22T02:00:05.008Z,52.13
2019-03-22T02:02:31.958Z,52.75
2019-03-22T02:04:58.760Z,52.63
2019-03-22T02:07:26.942Z,53.23
2019-03-22T02:09:53.878Z,53.05
2019-03-22T02:12:20.578Z,52.76
2019-03-22T02:14:47.464Z,53.01
2019-03-22T02:17:14.852Z,52.86
2019-03-22T02:22:27.363Z,53.96
2019-03-22T02:24:54.059Z,53.54
2019-03-22T02:27:20.755Z,53.23
2019-03-22T02:29:49.269Z,52.68
2019-03-22T02:32:16.298Z,52.06
2019-03-22T02:34:42.984Z,51.68
2019-03-22T02:37:09.923Z,51.64
2019-03-22T02:39:36.831Z,51.54
2019-03-22T02:42:03.566Z,51.57
2019-03-22T02:44:30.318Z,51.97
2019-03-22T02:46:57.056Z,52.63
2019-03-22T02:49:23.907Z,53.09
2019-03-22T02:51:50.532Z,53.44
2019-03-22T02:54:17.173Z,53.63
2019-03-22T02:56:44.531Z,52.87
2019-03-22T02:59:11.146Z,53.01
2019-03-22T03:01:37.753Z,53.50
2019-03-22T03:04:04.677Z,54.10
2019-03-22T03:06:32.178Z,53.92
2019-03-22T03:08:59.133Z,53.71
2019-03-22T03:11:26.082Z,53.38
2019-03-22T03:13:53.165Z,53.18
2019-03-22T03:16:19.805Z,53.34
2019-03-22T03:18:46.451Z,53.53
2019-03-22T03:21:14.007Z,53.80
2019-03-22T03:23:40.904Z,53.91
2019-03-22T03:26:07.542Z,53.62
2019-03-22T03:28:37.085Z,53.75
2019-03-22T03:31:02.807Z,53.50
2019-03-22T03:33:29.683Z,53.33
2019-03-22T03:35:56.671Z,53.22
2019-03-22T03:38:23.527Z,53.59
2019-03-22T03:40:50.403Z,53.86
2019-03-22T03:43:17.158Z,53.84
2019-03-22T03:45:52.709Z,53.68
2019-03-22T03:48:19.645Z,54.06
2019-03-22T03:50:46.348Z,54.57
2019-03-22T03:53:13.196Z,54.68
2019-03-22T03:55:39.902Z,54.60
2019-03-22T03:58:06.578Z,54.71
2019-03-22T04:00:33.184Z,54.69
2019-03-22T04:02:59.999Z,54.50
2019-03-22T04:05:26.901Z,54.64
2019-03-22T04:07:53.516Z,55.22
2019-03-22T04:10:21.523Z,55.16
2019-03-22T04:12:49.332Z,54.97
2019-03-22T04:15:16.037Z,54.54
2019-03-22T04:26:04.426Z,54.65
2019-03-22T04:28:44.175Z,55.18
2019-03-22T04:31:16.777Z,55.39
2019-03-22T04:34:03.610Z,55.14
2019-03-22T04:36:32.478Z,54.87
2019-03-22T04:39:02.106Z,55.10
2019-03-22T04:41:31.983Z,55.09
2019-03-22T04:44:03.118Z,54.84
2019-03-22T04:46:31.799Z,54.33
2019-03-22T04:49:09.525Z,54.06
2019-03-22T04:51:37.391Z,54.04
2019-03-22T04:54:09.073Z,54.73
2019-03-22T04:56:36.942Z,55.39
2019-03-22T04:59:04.701Z,55.50
2019-03-22T05:01:31.509Z,55.70
2019-03-22T05:04:01.672Z,55.83
2019-03-22T05:06:28.514Z,56.01
2019-03-22T05:08:55.211Z,55.85
2019-03-22T05:11:22.104Z,55.22
2019-03-22T05:13:48.889Z,55.07
2019-03-22T05:16:15.579Z,54.33
2019-03-22T05:18:44.028Z,54.29
2019-03-22T05:21:10.762Z,54.59
2019-03-22T05:23:37.625Z,54.53
2019-03-22T05:26:05.212Z,54.26
2019-03-22T05:28:32.879Z,54.72
2019-03-22T05:30:59.481Z,55.36
2019-03-22T05:33:26.762Z,55.17
2019-03-22T05:35:54.676Z,54.96
2019-03-22T05:38:21.991Z,54.79
2019-03-22T05:40:48.672Z,54.69
2019-03-22T05:43:19.468Z,54.48
2019-03-22T05:45:47.135Z,54.23
2019-03-22T05:48:15.100Z,53.80
2019-03-22T05:50:53.834Z,53.68
2019-03-22T05:53:20.474Z,53.93
2019-03-22T05:55:47.378Z,54.00
2019-03-22T05:58:14.663Z,53.65
2019-03-22T06:00:42.845Z,53.16
2019-03-22T06:03:09.536Z,52.79
2019-03-22T06:05:37.601Z,52.42
2019-03-22T06:08:05.047Z,52.27
2019-03-22T06:10:31.948Z,51.68
2019-03-22T06:12:58.572Z,51.90
2019-03-22T06:15:26.005Z,51.57
2019-03-22T06:17:55.546Z,50.66
2019-03-22T06:20:22.494Z,50.58
2019-03-22T06:22:49.130Z,50.35
2019-03-22T06:25:16.215Z,49.89
2019-03-22T06:27:43.102Z,49.62
2019-03-22T06:30:10.165Z,49.72
2019-03-22T06:32:36.910Z,49.05
2019-03-22T06:35:03.784Z,49.59
2019-03-22T06:37:30.676Z,49.50
2019-03-22T06:39:57.713Z,48.60
2019-03-22T06:42:24.322Z,48.47
2019-03-22T06:44:51.019Z,47.50
2019-03-22T06:47:17.678Z,46.44
2019-03-22T06:49:44.305Z,47.10
2019-03-22T06:52:11.354Z,46.72
2019-03-22T06:54:38.380Z,46.85
2019-03-22T06:57:05.844Z,45.71
2019-03-22T06:59:32.864Z,45.37
2019-03-22T07:01:59.539Z,44.47
2019-03-22T07:04:26.164Z,45.19
2019-03-22T07:06:53.119Z,44.29
2019-03-22T07:09:20.165Z,43.28
2019-03-22T07:11:57.248Z,43.59
2019-03-22T07:17:13.174Z,43.29
2019-03-22T07:19:40.013Z,42.93
2019-03-22T07:27:40.401Z,41.83
2019-03-22T07:30:17.928Z,41.57
2019-03-22T07:32:37.300Z,41.00
2019-03-22T07:35:08.027Z,40.41
2019-03-22T07:37:35.630Z,40.24
2019-03-22T07:40:02.679Z,40.08
2019-03-22T07:42:29.351Z,39.22
2019-03-22T07:44:56.496Z,39.79
2019-03-22T07:47:25.363Z,39.58
2019-03-22T07:49:52.035Z,39.08
2019-03-22T07:55:05.522Z,38.75
2019-03-22T07:57:34.129Z,38.43
2019-03-22T08:00:05.183Z,37.58
2019-03-22T08:02:36.875Z,37.78
2019-03-22T08:05:03.487Z,37.73
2019-03-22T08:07:30.447Z,36.97
2019-03-22T08:09:58.432Z,36.64
2019-03-22T08:12:25.106Z,35.83
2019-03-22T08:17:41.456Z,35.66
2019-03-22T08:20:08.268Z,35.96
2019-03-22T08:22:35.170Z,34.71
2019-03-22T08:25:01.786Z,35.58
2019-03-22T08:27:28.725Z,34.50
2019-03-22T08:29:55.521Z,34.46
2019-03-22T08:32:23.098Z,34.55
2019-03-22T08:34:49.843Z,33.65
2019-03-22T08:37:18.111Z,33.41
2019-03-22T08:39:47.727Z,30.70
2019-03-22T08:42:14.177Z,31.14
2019-03-22T08:44:40.869Z,31.98
2019-03-22T08:47:07.831Z,30.60
2019-03-22T08:49:34.690Z,30.49
2019-03-22T08:52:01.434Z,31.18
2019-03-22T08:54:28.126Z,31.41
2019-03-22T08:56:55.049Z,30.62
2019-03-22T08:59:24.688Z,31.11
2019-03-22T09:01:52.310Z,31.70
2019-03-22T09:04:19.205Z,31.87
2019-03-22T09:06:47.121Z,30.85
2019-03-22T09:09:13.832Z,30.71
2019-03-22T09:11:40.685Z,31.50
2019-03-22T09:14:07.379Z,31.49
2019-03-22T09:16:34.088Z,31.82
2019-03-22T09:19:02.496Z,30.84
2019-03-22T09:21:29.119Z,30.97
2019-03-22T09:23:56.704Z,31.02
2019-03-22T09:26:23.623Z,31.17
2019-03-22T09:28:50.469Z,30.77
2019-03-22T09:31:17.081Z,30.56
2019-03-22T09:33:43.676Z,30.22
2019-03-22T09:36:10.287Z,30.04
2019-03-22T09:38:38.000Z,30.59
2019-03-22T09:41:04.861Z,30.02
2019-03-22T09:43:31.665Z,29.55
2019-03-22T09:46:00.699Z,29.37
2019-03-22T09:48:27.336Z,29.92
2019-03-22T09:50:54.032Z,29.63
2019-03-22T09:53:21.008Z,29.53
2019-03-22T09:55:47.991Z,28.85
2019-03-22T09:58:14.591Z,28.78
2019-03-22T10:00:41.169Z,28.81
2019-03-22T10:03:07.782Z,27.53
2019-03-22T10:05:34.449Z,28.53
2019-03-22T10:08:01.361Z,27.30
2019-03-22T10:10:28.523Z,26.73
2019-03-22T10:12:55.115Z,27.65
2019-03-22T10:15:22.067Z,26.36
2019-03-22T10:20:36.719Z,27.29
2019-03-22T10:23:22.306Z,26.97
2019-03-22T10:25:53.655Z,26.25
2019-03-22T10:28:22.634Z,25.72
2019-03-22T10:30:54.112Z,26.15
2019-03-22T10:33:25.609Z,25.71
2019-03-22T10:35:52.779Z,26.42
2019-03-22T10:38:30.989Z,25.85
2019-03-22T10:40:52.419Z,25.74
2019-03-22T10:43:19.404Z,25.88
2019-03-22T10:45:46.492Z,25.21
2019-03-22T10:48:15.423Z,27.03
2019-03-22T10:50:46.721Z,24.85
2019-03-22T10:53:17.470Z,25.26
2019-03-22T10:55:46.894Z,25.82
2019-03-22T10:58:21.369Z,25.60
2019-03-22T11:00:47.847Z,26.29
2019-03-22T11:03:14.290Z,25.92
2019-03-22T11:05:41.251Z,24.47
2019-03-22T11:08:08.149Z,24.09
2019-03-22T11:10:35.083Z,24.54
2019-03-22T11:13:01.833Z,24.51
2019-03-22T11:15:28.650Z,23.97
2019-03-22T11:17:55.569Z,23.99
2019-03-22T11:20:22.507Z,24.27
2019-03-22T11:22:49.106Z,23.48
2019-03-22T11:25:15.892Z,23.75
2019-03-22T11:27:42.540Z,24.40
2019-03-22T11:30:09.107Z,25.13
2019-03-22T11:32:35.951Z,24.05
2019-03-22T11:35:03.023Z,23.91
2019-03-22T11:37:29.622Z,23.98
2019-03-22T11:39:56.380Z,23.86
2019-03-22T11:42:24.343Z,24.02
2019-03-22T11:44:50.965Z,23.30
2019-03-22T11:47:17.612Z,23.74
2019-03-22T11:49:44.538Z,23.60
2019-03-22T11:52:11.178Z,23.59
2019-03-22T11:54:37.793Z,22.66
2019-03-22T11:57:04.674Z,23.36
2019-03-22T11:59:32.951Z,23.02
2019-03-22T12:01:59.873Z,23.67
2019-03-22T12:04:26.777Z,22.73
2019-03-22T12:06:53.958Z,23.93
2019-03-22T12:09:22.955Z,23.97
2019-03-22T12:11:50.296Z,22.85
2019-03-22T12:14:17.206Z,22.97
2019-03-22T12:16:43.876Z,23.04
2019-03-22T12:19:14.579Z,22.63
2019-03-22T12:21:41.189Z,22.97
2019-03-22T12:24:08.152Z,23.71
2019-03-22T12:26:35.419Z,22.52
2019-03-22T12:29:02.569Z,22.67
2019-03-22T12:31:29.795Z,22.17
2019-03-22T12:33:56.965Z,22.09
2019-03-22T12:36:25.650Z,22.84
2019-03-22T12:38:52.542Z,22.07
2019-03-22T12:41:19.744Z,22.72
2019-03-22T12:43:46.940Z,22.02
2019-03-22T12:46:13.890Z,22.54
2019-03-22T12:48:41.136Z,22.38
2019-03-22T12:51:08.058Z,21.78
2019-03-22T12:53:34.945Z,21.73
2019-03-22T12:56:02.264Z,22.28
2019-03-22T12:58:29.187Z,21.16
2019-03-22T13:00:56.381Z,21.63
2019-03-22T13:03:24.400Z,21.37
2019-03-22T13:05:51.363Z,21.81
2019-03-22T13:08:18.282Z,22.15
2019-03-22T13:10:45.159Z,21.49
2019-03-22T13:13:12.094Z,20.91
2019-03-22T13:15:38.702Z,21.50
2019-03-22T13:18:05.632Z,21.90
2019-03-22T13:20:32.550Z,20.60
2019-03-22T13:22:59.423Z,20.62
2019-03-22T13:25:26.674Z,20.85
2019-03-22T13:27:53.504Z,20.88
2019-03-22T13:30:20.428Z,20.52
2019-03-22T13:32:52.168Z,21.65
2019-03-22T13:35:16.021Z,22.09
2019-03-22T13:37:43.782Z,22.39
2019-03-22T13:40:10.703Z,20.81
2019-03-22T13:42:37.853Z,21.18
2019-03-22T13:45:19.730Z,20.79
2019-03-22T13:47:47.187Z,20.34
2019-03-22T13:50:14.143Z,20.57
2019-03-22T13:52:41.027Z,20.80
2019-03-22T13:55:08.320Z,20.80
2019-03-22T13:57:35.189Z,20.79
2019-03-22T14:00:01.903Z,20.62
2019-03-22T14:02:30.159Z,20.54
2019-03-22T14:04:56.765Z,20.67
2019-03-22T14:07:23.630Z,20.59
2019-03-22T14:09:52.045Z,20.58
2019-03-22T14:12:18.996Z,20.68
2019-03-22T14:14:47.154Z,20.35
2019-03-22T14:17:14.021Z,20.01
2019-03-22T14:19:40.913Z,20.12
2019-03-22T14:22:07.805Z,20.06
2019-03-22T14:24:35.004Z,20.02
2019-03-22T14:27:02.027Z,21.13
2019-03-22T14:29:28.609Z,20.69
2019-03-22T14:31:55.857Z,20.51
2019-03-22T14:34:23.089Z,20.62
2019-03-22T14:36:49.978Z,21.72
2019-03-22T14:39:16.900Z,20.91
2019-03-22T14:41:43.771Z,21.16
2019-03-22T14:44:10.739Z,20.76
2019-03-22T14:46:37.674Z,20.31
2019-03-22T14:49:04.709Z,20.46
2019-03-22T14:51:31.466Z,20.83
2019-03-22T14:53:58.771Z,20.55
2019-03-22T14:56:25.773Z,21.09
2019-03-22T14:58:52.836Z,21.36
2019-03-22T15:01:20.032Z,21.51
2019-03-22T15:03:46.802Z,21.21
2019-03-22T15:06:13.708Z,21.74
2019-03-22T15:08:40.821Z,21.60
2019-03-22T15:11:07.809Z,21.49
2019-03-22T15:13:34.671Z,21.47
2019-03-22T15:16:01.634Z,22.39
2019-03-22T15:18:28.498Z,21.60
2019-03-22T15:20:55.832Z,21.04
2019-03-22T15:23:23.171Z,20.99
2019-03-22T15:25:50.513Z,21.05
2019-03-22T15:28:17.108Z,21.10
2019-03-22T15:30:44.014Z,21.52
2019-03-22T15:33:10.801Z,21.20
2019-03-22T15:35:37.762Z,21.28
2019-03-22T15:38:04.759Z,21.38
2019-03-22T15:40:31.657Z,21.50
2019-03-22T15:42:58.500Z,21.40
2019-03-22T15:45:25.828Z,21.45
2019-03-22T15:47:52.966Z,21.08
2019-03-22T15:50:19.897Z,21.83
2019-03-22T15:52:46.849Z,21.44
2019-03-22T15:55:13.837Z,21.16
2019-03-22T15:57:40.609Z,21.70
2019-03-22T16:00:07.561Z,21.36
2019-03-22T16:02:34.548Z,22.10
2019-03-22T16:05:07.898Z,22.86
2019-03-22T16:07:34.820Z,22.77
2019-03-22T16:10:01.652Z,22.57
2019-03-22T16:12:28.566Z,22.71
2019-03-22T16:14:55.193Z,22.45
2019-03-22T16:17:22.159Z,22.84
2019-03-22T16:19:50.088Z,23.01
2019-03-22T16:22:16.990Z,22.56
2019-03-22T16:24:44.917Z,22.46
2019-03-22T16:27:11.788Z,22.46
2019-03-22T16:29:38.683Z,22.53
2019-03-22T16:32:07.074Z,22.55
2019-03-22T16:34:35.278Z,22.80
2019-03-22T16:37:03.128Z,23.10
2019-03-22T16:39:31.374Z,23.08
2019-03-22T16:41:58.261Z,23.32
2019-03-22T16:44:25.419Z,23.55
2019-03-22T16:46:53.292Z,24.05
2019-03-22T16:49:21.197Z,24.35
2019-03-22T16:51:48.026Z,25.09
2019-03-22T16:54:15.660Z,24.96
2019-03-22T16:56:42.412Z,25.13
2019-03-22T16:59:09.484Z,25.39
2019-03-22T17:01:37.127Z,25.91
2019-03-22T17:04:04.964Z,25.65
2019-03-22T17:06:32.206Z,26.70
2019-03-22T17:09:00.470Z,26.82
2019-03-22T17:14:12.143Z,27.00
2019-03-22T17:16:38.871Z,27.34
2019-03-22T17:19:05.585Z,27.60
2019-03-22T17:21:32.501Z,28.00
2019-03-22T17:24:00.395Z,28.36
2019-03-22T17:26:31.316Z,28.35
2019-03-22T17:29:00.066Z,28.57
2019-03-22T17:31:26.926Z,29.40
2019-03-22T17:33:53.767Z,29.81
2019-03-22T17:36:20.432Z,30.09
2019-03-22T17:38:47.137Z,30.20
2019-03-22T17:41:14.361Z,30.33
2019-03-22T17:43:41.091Z,30.27
2019-03-22T17:46:08.793Z,30.46
2019-03-22T17:48:35.454Z,30.46
2019-03-22T17:51:02.309Z,30.86
2019-03-22T17:53:29.261Z,31.49
2019-03-22T17:55:55.882Z,31.84
2019-03-22T17:58:22.703Z,32.26
2019-03-22T18:00:49.360Z,32.65
2019-03-22T18:03:16.955Z,32.55
2019-03-22T18:05:44.841Z,32.43
2019-03-22T18:08:11.438Z,32.55
2019-03-22T18:13:31.727Z,32.85
2019-03-22T18:15:58.598Z,32.95
2019-03-22T18:18:25.174Z,33.19
2019-03-22T18:20:53.772Z,33.51
2019-03-22T18:23:24.600Z,33.68
2019-03-22T18:26:04.697Z,33.91
2019-03-22T18:28:54.288Z,34.08
2019-03-22T18:31:16.636Z,34.66
2019-03-22T18:33:52.022Z,34.52
2019-03-22T18:36:14.675Z,34.79
2019-03-22T18:39:06.942Z,34.82
2019-03-22T18:41:12.149Z,34.89
2019-03-22T18:43:47.805Z,35.96
2019-03-22T18:46:12.177Z,36.21
2019-03-22T18:48:40.895Z,36.65
2019-03-22T18:51:09.352Z,37.05
2019-03-22T18:53:38.970Z,36.53
2019-03-22T18:56:19.996Z,36.14
2019-03-22T18:58:47.449Z,36.06
2019-03-22T19:01:19.719Z,35.96
2019-03-22T19:06:24.514Z,35.81
2019-03-22T19:08:50.392Z,35.88
2019-03-22T19:11:16.949Z,36.18
2019-03-22T19:13:45.651Z,36.40
2019-03-22T19:16:14.543Z,36.66
2019-03-22T19:18:49.287Z,36.57
2019-03-22T19:21:21.968Z,36.75
2019-03-22T19:23:50.583Z,36.75
2019-03-22T19:26:21.160Z,36.80
2019-03-22T19:28:52.594Z,37.04
2019-03-22T19:31:20.229Z,37.19
2019-03-22T19:33:49.132Z,37.35
2019-03-22T19:36:18.826Z,37.41
2019-03-22T19:38:48.606Z,37.74
2019-03-22T19:41:18.623Z,37.86
2019-03-22T19:43:45.476Z,38.69
2019-03-22T19:49:28.556Z,38.68
2019-03-22T19:51:58.586Z,38.59
2019-03-22T19:54:30.355Z,38.36
2019-03-22T19:57:01.546Z,38.86
2019-03-22T19:59:32.243Z,38.86
2019-03-22T20:02:01.009Z,38.83
2019-03-22T20:04:28.570Z,39.22
2019-03-22T20:06:55.448Z,39.47
2019-03-22T20:09:24.065Z,39.65
2019-03-22T20:11:52.776Z,39.94
2019-03-22T20:14:19.375Z,40.29
2019-03-22T20:16:46.095Z,40.12
2019-03-22T20:21:58.274Z,40.04
2019-03-22T20:24:25.944Z,40.38
2019-03-22T20:26:59.785Z,40.36
2019-03-22T20:29:27.451Z,40.49
2019-03-22T20:31:54.306Z,41.13
2019-03-22T20:34:21.205Z,41.39
2019-03-22T20:36:47.925Z,41.44
2019-03-22T20:39:14.615Z,41.48
2019-03-22T20:41:41.453Z,41.30
2019-03-22T20:44:08.903Z,41.14
2019-03-22T20:46:36.147Z,41.15
2019-03-22T20:49:05.068Z,41.87
2019-03-22T20:51:31.224Z,41.32
2019-03-22T20:53:57.861Z,41.59
2019-03-22T20:56:24.820Z,41.47
2019-03-22T20:58:51.833Z,41.44
2019-03-22T21:01:18.454Z,41.41
2019-03-22T21:03:45.189Z,41.49
2019-03-22T21:06:12.199Z,41.46
2019-03-22T21:08:38.926Z,41.71
2019-03-22T21:11:05.815Z,41.71
2019-03-22T21:13:32.502Z,41.96
2019-03-22T21:15:59.498Z,42.32
2019-03-22T21:18:26.081Z,42.77
2019-03-22T21:20:52.689Z,42.82
2019-03-22T21:23:19.658Z,43.09
2019-03-22T21:25:46.478Z,43.18
2019-03-22T21:28:13.633Z,43.45
2019-03-22T21:30:40.252Z,43.36
2019-03-22T21:33:08.244Z,43.38
2019-03-22T21:35:37.469Z,43.53
2019-03-22T21:38:10.792Z,43.34
2019-03-22T21:40:31.867Z,43.43
2019-03-22T21:43:00.349Z,43.07
2019-03-22T21:45:26.910Z,42.86
2019-03-22T21:47:53.787Z,42.78
2019-03-22T21:50:20.482Z,43.02
2019-03-22T21:52:47.097Z,43.36
2019-03-22T21:55:13.754Z,43.80
2019-03-22T21:57:40.555Z,44.45
2019-03-22T22:00:07.156Z,44.32
2019-03-22T22:02:34.788Z,44.27
2019-03-22T22:05:01.730Z,44.27
2019-03-22T22:07:28.612Z,44.22
2019-03-22T22:09:55.197Z,44.17
2019-03-22T22:12:21.839Z,44.18
2019-03-22T22:14:49.737Z,44.32
2019-03-22T22:17:16.612Z,44.83
2019-03-22T22:19:46.927Z,44.79
2019-03-22T22:22:18.016Z,44.72
2019-03-22T22:24:45.616Z,44.88
2019-03-22T22:27:18.029Z,45.00
2019-03-22T22:29:47.560Z,45.01
2019-03-22T22:32:25.833Z,45.52
2019-03-22T22:34:55.632Z,45.00
2019-03-22T22:40:14.749Z,45.56
2019-03-22T22:42:42.378Z,45.80
2019-03-22T22:45:10.633Z,46.56
2019-03-22T22:47:39.585Z,46.65
2019-03-22T22:50:12.343Z,46.68
2019-03-22T22:52:41.740Z,46.45
2019-03-22T22:55:21.031Z,46.66
2019-03-22T22:57:49.149Z,46.20
2019-03-22T23:00:16.321Z,46.39
2019-03-22T23:02:46.909Z,46.65
2019-03-22T23:05:18.576Z,46.69
2019-03-22T23:07:47.549Z,46.38
2019-03-22T23:10:20.980Z,46.36
2019-03-22T23:12:48.750Z,46.51
2019-03-22T23:15:18.065Z,46.57
2019-03-22T23:17:46.937Z,46.72
2019-03-22T23:20:16.961Z,46.65
2019-03-22T23:22:47.604Z,46.05
2019-03-22T23:25:37.030Z,46.13
2019-03-22T23:27:45.543Z,46.58
2019-03-22T23:30:16.766Z,47.06
2019-03-22T23:35:30.610Z,47.46
2019-03-22T23:37:58.018Z,47.90
2019-03-22T23:40:28.950Z,48.32
2019-03-22T23:42:57.143Z,48.26
2019-03-22T23:45:24.503Z,48.25
2019-03-22T23:47:52.947Z,48.10
2019-03-22T23:50:20.893Z,48.32
2019-03-22T23:52:47.831Z,48.27
2019-03-22T23:55:15.502Z,48.37
2019-03-22T23:57:44.277Z,48.56
